createdAt,value
2023-03-11T00:00:31.832Z,72.57
2023-03-11T00:03:02.255Z,67.47
2023-03-11T00:05:31.652Z,64.37
2023-03-11T00:07:59.358Z,65.77
2023-03-11T00:10:31.676Z,67.80
2023-03-11T00:12:59.675Z,66.87
2023-03-11T00:15:28.141Z,76.00
2023-03-11T00:17:55.980Z,68.93
2023-03-11T00:20:26.800Z,67.47
2023-03-11T00:22:54.741Z,76.90
2023-03-11T00:25:24.415Z,71.53
2023-03-11T00:27:53.452Z,75.63
2023-03-11T00:30:22.501Z,71.40
2023-03-11T00:32:50.811Z,67.60
2023-03-11T00:35:21.532Z,67.90
2023-03-11T00:37:50.192Z,66.03
2023-03-11T00:40:20.480Z,64.40
2023-03-11T00:42:48.615Z,72.43
2023-03-11T00:45:17.776Z,69.07
2023-03-11T00:47:45.521Z,66.23
2023-03-11T00:50:17.969Z,71.43
2023-03-11T00:52:46.163Z,69.33
2023-03-11T00:55:15.356Z,69.67
2023-03-11T00:57:44.261Z,63.47
2023-03-11T01:00:15.659Z,66.10
2023-03-11T01:02:45.521Z,74.87
2023-03-11T01:05:13.682Z,66.67
2023-03-11T01:07:41.600Z,66.87
2023-03-11T01:10:11.003Z,72.40
2023-03-11T01:12:38.704Z,61.80
2023-03-11T01:15:08.145Z,67.23
2023-03-11T01:17:36.013Z,61.47
2023-03-11T01:20:09.068Z,61.67
2023-03-11T01:22:36.784Z,62.73
2023-03-11T01:25:04.751Z,62.37
2023-03-11T01:27:32.493Z,63.97
2023-03-11T01:30:00.169Z,64.03
2023-03-11T01:32:27.772Z,73.40
2023-03-11T01:34:55.442Z,68.53
2023-03-11T01:37:24.430Z,71.73
2023-03-11T01:39:52.093Z,72.27
2023-03-11T01:42:20.267Z,73.50
2023-03-11T01:44:48.452Z,70.47
2023-03-11T01:47:39.170Z,72.67
2023-03-11T01:50:11.839Z,66.73
2023-03-11T01:52:43.129Z,75.40
2023-03-11T01:55:12.843Z,67.70
2023-03-11T01:57:42.779Z,73.43
2023-03-11T02:00:13.434Z,74.13
2023-03-11T02:02:44.082Z,72.20
2023-03-11T02:05:12.689Z,82.87
2023-03-11T02:07:42.580Z,75.13
2023-03-11T02:10:14.509Z,72.57
2023-03-11T02:12:43.484Z,74.47
2023-03-11T02:15:12.964Z,71.17
2023-03-11T02:17:43.138Z,74.63
2023-03-11T02:20:20.621Z,71.90
2023-03-11T02:22:50.508Z,71.67
2023-03-11T02:25:25.017Z,77.00
2023-03-11T02:27:56.515Z,74.03
2023-03-11T02:30:28.259Z,75.17
2023-03-11T02:32:57.178Z,73.73
2023-03-11T02:35:26.285Z,75.50
2023-03-11T02:37:56.061Z,72.03
2023-03-11T02:40:36.360Z,73.80
2023-03-11T02:43:08.423Z,72.90
2023-03-11T02:45:39.917Z,69.00
2023-03-11T02:48:11.638Z,69.50
2023-03-11T02:50:41.121Z,73.20
2023-03-11T02:53:09.979Z,68.07
2023-03-11T02:55:37.717Z,72.23
2023-03-11T02:58:09.328Z,72.43
2023-03-11T03:00:38.314Z,71.67
2023-03-11T03:03:08.814Z,73.57
2023-03-11T03:05:37.663Z,74.43
2023-03-11T03:08:05.475Z,70.27
2023-03-11T03:10:33.500Z,82.40
2023-03-11T03:13:01.208Z,70.83
2023-03-11T03:15:30.835Z,70.93
2023-03-11T03:17:58.550Z,68.73
2023-03-11T03:20:26.582Z,70.40
2023-03-11T03:22:57.561Z,75.63
2023-03-11T03:25:28.888Z,71.10
2023-03-11T03:27:59.018Z,69.57
2023-03-11T03:30:28.370Z,76.13
2023-03-11T03:32:57.953Z,75.50
2023-03-11T03:35:26.058Z,73.60
2023-03-11T03:38:04.328Z,68.87
2023-03-11T03:40:33.600Z,75.80
2023-03-11T03:43:04.544Z,69.77
2023-03-11T03:45:34.499Z,77.07
2023-03-11T03:48:04.191Z,73.83
2023-03-11T03:50:35.054Z,67.90
2023-03-11T03:53:02.909Z,65.83
2023-03-11T03:55:30.582Z,69.07
2023-03-11T03:57:59.781Z,64.90
2023-03-11T04:00:34.365Z,71.17
2023-03-11T04:03:05.216Z,69.03
2023-03-11T04:05:43.033Z,66.00
2023-03-11T04:08:12.151Z,73.67
2023-03-11T04:10:39.902Z,73.77
2023-03-11T04:13:07.925Z,71.73
2023-03-11T04:15:38.701Z,69.63
2023-03-11T04:18:08.346Z,73.20
2023-03-11T04:20:39.473Z,73.97
2023-03-11T04:23:07.271Z,70.47
2023-03-11T04:25:35.244Z,70.17
2023-03-11T04:28:03.820Z,70.20
2023-03-11T04:30:33.135Z,68.07
2023-03-11T04:33:01.733Z,67.83
2023-03-11T04:35:30.882Z,68.97
2023-03-11T04:38:00.709Z,69.80
2023-03-11T04:40:28.735Z,76.13
2023-03-11T04:42:56.404Z,66.03
2023-03-11T04:45:24.741Z,73.50
2023-03-11T04:47:55.811Z,70.97
2023-03-11T04:50:23.685Z,69.23
2023-03-11T04:52:53.148Z,69.37
2023-03-11T04:55:20.843Z,73.40
2023-03-11T04:57:48.449Z,67.37
2023-03-11T05:00:20.017Z,68.73
2023-03-11T05:02:48.979Z,67.20
2023-03-11T05:05:18.857Z,65.00
2023-03-11T05:07:46.765Z,65.70
2023-03-11T05:10:22.125Z,62.27
2023-03-11T05:12:51.932Z,68.13
2023-03-11T05:15:21.159Z,58.07
2023-03-11T05:17:48.930Z,57.33
2023-03-11T05:20:16.664Z,58.73
2023-03-11T05:22:44.339Z,57.77
2023-03-11T05:25:12.234Z,59.40
2023-03-11T05:27:41.247Z,56.53
2023-03-11T05:30:11.167Z,52.20
2023-03-11T05:32:40.728Z,53.40
2023-03-11T05:35:09.483Z,50.23
2023-03-11T05:37:39.172Z,46.60
2023-03-11T05:40:09.079Z,42.87
2023-03-11T05:42:40.191Z,47.23
2023-03-11T05:45:10.818Z,48.53
2023-03-11T05:47:42.110Z,44.93
2023-03-11T05:50:13.015Z,49.37
2023-03-11T05:52:42.265Z,47.57
2023-03-11T05:55:12.197Z,46.23
2023-03-11T05:57:41.805Z,46.87
2023-03-11T06:00:12.717Z,51.07
2023-03-11T06:02:48.403Z,45.10
2023-03-11T06:05:18.862Z,45.87
2023-03-11T06:07:48.875Z,47.77
2023-03-11T06:10:16.728Z,49.87
2023-03-11T06:12:44.355Z,46.63
2023-03-11T06:15:22.229Z,47.93
2023-03-11T06:17:50.576Z,47.83
2023-03-11T06:20:19.080Z,46.00
2023-03-11T06:22:49.281Z,48.87
2023-03-11T06:25:17.537Z,42.77
2023-03-11T06:27:50.612Z,51.40
2023-03-11T06:30:19.244Z,50.43
2023-03-11T06:32:56.577Z,46.10
2023-03-11T06:35:24.404Z,50.87
2023-03-11T06:37:52.120Z,49.57
2023-03-11T06:40:20.038Z,51.27
2023-03-11T06:42:48.263Z,53.47
2023-03-11T06:45:17.456Z,54.97
2023-03-11T06:47:46.329Z,54.70
2023-03-11T06:50:15.423Z,55.03
2023-03-11T06:52:43.161Z,62.17
2023-03-11T06:55:11.106Z,62.37
2023-03-11T06:57:38.748Z,64.13
2023-03-11T07:00:13.044Z,63.07
2023-03-11T07:02:43.752Z,62.40
2023-03-11T07:05:14.408Z,58.20
2023-03-11T07:07:43.523Z,62.77
2023-03-11T07:10:12.493Z,57.53
2023-03-11T07:12:40.692Z,61.50
2023-03-11T07:15:10.044Z,66.73
2023-03-11T07:17:38.008Z,72.17
2023-03-11T07:20:06.710Z,68.50
2023-03-11T07:22:34.419Z,62.63
2023-03-11T07:25:03.465Z,68.37
2023-03-11T07:27:31.114Z,58.37
2023-03-11T07:29:58.775Z,59.40
2023-03-11T07:32:26.493Z,67.10
2023-03-11T07:34:54.290Z,65.90
2023-03-11T07:37:21.978Z,70.13
2023-03-11T07:39:49.627Z,64.70
2023-03-11T07:42:18.628Z,67.43
2023-03-11T07:44:47.685Z,70.93
2023-03-11T07:47:15.329Z,68.37
2023-03-11T07:49:42.967Z,72.83
2023-03-11T07:52:10.629Z,76.13
2023-03-11T07:54:38.258Z,79.50
2023-03-11T07:57:07.288Z,76.80
2023-03-11T07:59:36.309Z,79.33
2023-03-11T08:02:04.754Z,72.80
2023-03-11T08:04:32.520Z,79.17
2023-03-11T08:07:00.180Z,75.33
2023-03-11T08:09:28.065Z,73.97
2023-03-11T08:11:55.680Z,76.43
2023-03-11T08:14:23.335Z,73.37
2023-03-11T08:16:52.336Z,72.60
2023-03-11T08:19:19.990Z,78.47
2023-03-11T08:21:47.666Z,85.07
2023-03-11T08:24:16.015Z,85.93
2023-03-11T08:26:43.699Z,77.67
2023-03-11T08:29:11.491Z,81.63
2023-03-11T08:31:39.288Z,80.80
2023-03-11T08:34:10.705Z,85.43
2023-03-11T08:36:38.994Z,88.60
2023-03-11T08:39:06.945Z,88.83
2023-03-11T08:41:34.949Z,91.23
2023-03-11T08:44:02.810Z,98.40
2023-03-11T08:46:33.167Z,106.40
2023-03-11T08:49:01.848Z,111.13
2023-03-11T08:51:32.548Z,100.20
2023-03-11T08:54:01.195Z,108.30
2023-03-11T08:56:29.069Z,119.37
2023-03-11T08:58:56.905Z,118.33
2023-03-11T09:01:25.603Z,117.87
2023-03-11T09:03:53.741Z,124.70
2023-03-11T09:06:21.960Z,128.33
2023-03-11T09:08:51.332Z,135.33
2023-03-11T09:11:21.959Z,143.93
2023-03-11T09:13:50.497Z,127.77
2023-03-11T09:16:20.754Z,135.20
2023-03-11T09:18:49.001Z,144.07
2023-03-11T09:21:17.037Z,153.27
2023-03-11T09:23:44.863Z,162.00
2023-03-11T09:26:14.713Z,155.60
2023-03-11T09:28:42.837Z,161.63
2023-03-11T09:31:10.655Z,158.00
2023-03-11T09:33:39.352Z,157.50
2023-03-11T09:36:08.247Z,146.70
2023-03-11T09:38:35.942Z,149.03
2023-03-11T09:41:09.562Z,156.67
2023-03-11T09:43:52.845Z,145.53
2023-03-11T09:46:52.406Z,133.20
2023-03-11T09:49:30.213Z,138.70
2023-03-11T09:52:07.710Z,138.03
2023-03-11T09:54:40.055Z,138.27
2023-03-11T09:57:13.599Z,147.93
2023-03-11T09:59:44.477Z,142.83
2023-03-11T10:02:18.399Z,137.43
2023-03-11T10:04:52.570Z,140.60
2023-03-11T10:07:25.262Z,130.17
2023-03-11T10:09:56.715Z,120.27
2023-03-11T10:12:37.792Z,113.73
2023-03-11T10:15:20.682Z,113.17
2023-03-11T10:18:03.543Z,121.47
2023-03-11T10:20:38.816Z,122.43
2023-03-11T10:23:19.599Z,134.70
2023-03-11T10:25:57.988Z,126.07
2023-03-11T10:28:30.780Z,119.17
2023-03-11T10:31:07.041Z,111.60
2023-03-11T10:33:41.752Z,94.30
2023-03-11T10:36:15.089Z,79.70
2023-03-11T10:38:46.600Z,82.70
2023-03-11T10:41:18.438Z,74.57
2023-03-11T10:43:51.568Z,77.43
2023-03-11T10:46:25.912Z,73.80
2023-03-11T10:48:53.566Z,75.67
2023-03-11T10:51:23.589Z,74.87
2023-03-11T10:53:52.755Z,82.00
2023-03-11T10:56:26.970Z,71.40
2023-03-11T10:58:54.797Z,75.23
2023-03-11T11:01:24.037Z,70.90
2023-03-11T11:03:55.350Z,59.07
2023-03-11T11:06:28.798Z,60.43
2023-03-11T11:09:17.743Z,53.10
2023-03-11T11:12:03.187Z,56.73
2023-03-11T11:14:47.974Z,58.23
2023-03-11T11:17:24.387Z,53.70
2023-03-11T11:19:53.862Z,58.57
2023-03-11T11:22:24.113Z,56.77
2023-03-11T11:24:53.988Z,52.10
2023-03-11T11:27:24.227Z,55.37
2023-03-11T11:30:12.308Z,56.50
2023-03-11T11:32:42.175Z,50.37
2023-03-11T11:35:13.646Z,53.40
2023-03-11T11:37:44.958Z,49.47
2023-03-11T11:40:24.375Z,48.13
2023-03-11T11:42:55.835Z,50.20
2023-03-11T11:45:30.313Z,49.63
2023-03-11T11:48:04.044Z,41.10
2023-03-11T11:50:35.184Z,35.83
2023-03-11T11:53:14.042Z,32.97
2023-03-11T11:55:48.280Z,31.30
2023-03-11T11:58:15.984Z,33.63
2023-03-11T12:00:53.088Z,35.93
2023-03-11T12:03:38.237Z,34.40
2023-03-11T12:06:13.330Z,35.57
2023-03-11T12:08:48.042Z,40.00
2023-03-11T12:11:22.256Z,38.47
2023-03-11T12:14:02.017Z,34.40
2023-03-11T12:16:40.465Z,33.67
2023-03-11T12:19:20.017Z,32.33
2023-03-11T12:22:24.182Z,31.10
2023-03-11T12:25:09.673Z,31.00
2023-03-11T12:27:44.561Z,30.63
2023-03-11T12:30:17.638Z,29.27
2023-03-11T12:32:50.026Z,31.03
2023-03-11T12:35:26.301Z,31.80
2023-03-11T12:38:00.937Z,29.80
2023-03-11T12:40:48.514Z,30.97
2023-03-11T12:43:43.941Z,29.10
2023-03-11T12:46:14.237Z,28.07
2023-03-11T12:48:46.803Z,34.23
2023-03-11T12:51:43.152Z,31.27
2023-03-11T12:54:23.176Z,30.50
2023-03-11T12:56:56.266Z,31.53
2023-03-11T13:00:00.155Z,30.70
2023-03-11T13:02:49.365Z,27.33
2023-03-11T13:05:26.454Z,31.37
2023-03-11T13:08:00.739Z,32.40
2023-03-11T13:10:38.882Z,32.50
2023-03-11T13:13:37.595Z,32.17
2023-03-11T13:16:37.217Z,32.17
2023-03-11T13:19:37.440Z,31.67
2023-03-11T13:22:44.527Z,30.77
2023-03-11T13:25:31.073Z,33.17
2023-03-11T13:28:08.095Z,32.00
2023-03-11T13:30:41.590Z,35.27
2023-03-11T13:33:22.711Z,36.20
2023-03-11T13:36:11.032Z,32.67
2023-03-11T13:39:18.087Z,31.63
2023-03-11T13:41:48.002Z,29.90
2023-03-11T13:44:26.044Z,33.87
2023-03-11T13:46:57.928Z,32.80
2023-03-11T13:49:36.660Z,31.90
2023-03-11T13:52:09.425Z,33.43
2023-03-11T13:54:43.482Z,32.90
2023-03-11T13:57:26.674Z,30.00
2023-03-11T13:59:55.329Z,33.47
2023-03-11T14:02:25.483Z,31.57
2023-03-11T14:04:56.927Z,32.83
2023-03-11T14:07:30.289Z,31.47
2023-03-11T14:10:22.626Z,28.63
2023-03-11T14:12:51.684Z,31.07
2023-03-11T14:15:23.660Z,30.07
2023-03-11T14:17:52.905Z,29.87
2023-03-11T14:20:25.080Z,30.20
2023-03-11T14:22:54.865Z,30.90
2023-03-11T14:25:25.788Z,32.90
2023-03-11T14:27:57.375Z,31.13
2023-03-11T14:30:27.779Z,31.60
2023-03-11T14:33:00.814Z,28.57
2023-03-11T14:35:29.447Z,28.40
2023-03-11T14:37:57.416Z,29.00
2023-03-11T14:40:28.289Z,33.63
2023-03-11T14:43:01.178Z,32.07
2023-03-11T14:45:31.635Z,33.33
2023-03-11T14:48:05.401Z,32.83
2023-03-11T14:50:35.950Z,29.13
2023-03-11T14:53:08.790Z,30.93
2023-03-11T14:55:40.403Z,32.50
2023-03-11T14:58:14.656Z,34.17
2023-03-11T15:00:47.427Z,34.17
2023-03-11T15:03:24.184Z,32.63
2023-03-11T15:05:55.117Z,29.73
2023-03-11T15:08:26.582Z,29.63
2023-03-11T15:11:06.870Z,29.13
2023-03-11T15:13:37.017Z,27.73
2023-03-11T15:16:07.701Z,29.63
2023-03-11T15:18:37.731Z,31.47
2023-03-11T15:21:14.909Z,29.67
2023-03-11T15:23:47.595Z,31.40
2023-03-11T15:26:21.130Z,38.23
2023-03-11T15:28:56.953Z,31.37
2023-03-11T15:31:31.476Z,33.87
2023-03-11T15:34:11.117Z,36.23
2023-03-11T15:36:42.254Z,35.03
2023-03-11T15:39:15.674Z,33.90
2023-03-11T15:41:44.348Z,34.10
2023-03-11T15:44:25.902Z,30.30
2023-03-11T15:46:54.058Z,30.37
2023-03-11T15:49:21.717Z,28.13
2023-03-11T15:51:49.323Z,30.63
2023-03-11T15:54:16.934Z,32.67
2023-03-11T15:56:45.257Z,30.13
2023-03-11T15:59:16.181Z,28.63
2023-03-11T16:01:47.064Z,32.30
2023-03-11T16:04:17.197Z,30.03
2023-03-11T16:06:49.568Z,32.10
2023-03-11T16:09:22.315Z,29.13
2023-03-11T16:11:49.885Z,28.90
2023-03-11T16:14:20.092Z,31.67
2023-03-11T16:16:49.120Z,32.93
2023-03-11T16:19:16.727Z,29.00
2023-03-11T16:21:49.272Z,29.57
2023-03-11T16:24:20.676Z,31.83
2023-03-11T16:26:48.361Z,29.70
2023-03-11T16:29:19.661Z,30.40
2023-03-11T16:31:49.349Z,34.33
2023-03-11T16:34:17.033Z,30.53
2023-03-11T16:36:44.672Z,34.20
2023-03-11T16:39:13.626Z,31.53
2023-03-11T16:41:42.925Z,32.10
2023-03-11T16:44:10.947Z,34.17
2023-03-11T16:46:38.759Z,31.53
2023-03-11T16:49:07.938Z,36.60
2023-03-11T16:51:35.552Z,30.57
2023-03-11T16:54:03.455Z,34.23
2023-03-11T16:56:31.170Z,35.90
2023-03-11T16:58:58.785Z,30.97
2023-03-11T17:01:26.443Z,32.93
2023-03-11T17:03:54.109Z,35.43
2023-03-11T17:06:23.831Z,39.67
2023-03-11T17:08:51.457Z,35.50
2023-03-11T17:11:21.193Z,38.03
2023-03-11T17:13:49.227Z,35.37
2023-03-11T17:16:17.055Z,33.63
2023-03-11T17:18:44.724Z,36.17
2023-03-11T17:21:15.636Z,36.33
2023-03-11T17:23:44.884Z,35.70
2023-03-11T17:26:14.595Z,42.07
2023-03-11T17:28:43.197Z,40.60
2023-03-11T17:31:15.384Z,41.47
2023-03-11T17:33:43.943Z,41.97
2023-03-11T17:36:14.624Z,42.70
2023-03-11T17:38:43.908Z,45.00
2023-03-11T17:41:13.724Z,44.80
2023-03-11T17:43:41.675Z,50.20
2023-03-11T17:46:11.239Z,45.30
2023-03-11T17:48:39.117Z,52.90
2023-03-11T17:51:07.483Z,56.97
2023-03-11T17:53:36.986Z,51.70
2023-03-11T17:56:07.414Z,58.83
2023-03-11T17:58:36.212Z,54.50
2023-03-11T18:01:05.268Z,56.63
2023-03-11T18:03:32.959Z,58.77
2023-03-11T18:06:02.593Z,59.40
2023-03-11T18:08:31.003Z,58.20
2023-03-11T18:11:02.006Z,63.47
2023-03-11T18:13:31.842Z,62.83
2023-03-11T18:16:00.743Z,66.63
2023-03-11T18:18:28.541Z,65.97
2023-03-11T18:20:56.151Z,65.90
2023-03-11T18:23:23.826Z,65.50
2023-03-11T18:25:52.423Z,66.40
2023-03-11T18:28:20.022Z,65.13
2023-03-11T18:30:49.012Z,77.13
2023-03-11T18:33:16.754Z,66.93
2023-03-11T18:35:44.394Z,73.03
2023-03-11T18:38:12.337Z,72.00
2023-03-11T18:40:40.053Z,76.40
2023-03-11T18:43:08.046Z,76.37
2023-03-11T18:45:35.674Z,79.10
2023-03-11T18:48:04.964Z,72.77
2023-03-11T18:50:32.729Z,67.53
2023-03-11T18:53:01.625Z,56.23
2023-03-11T18:55:29.359Z,65.10
2023-03-11T18:57:56.963Z,61.77
2023-03-11T19:00:24.874Z,56.87
2023-03-11T19:02:53.514Z,59.93
2023-03-11T19:05:22.543Z,62.77
2023-03-11T19:07:50.145Z,57.53
2023-03-11T19:10:19.980Z,61.90
2023-03-11T19:12:47.824Z,56.33
2023-03-11T19:15:15.638Z,53.53
2023-03-11T19:17:43.354Z,52.47
2023-03-11T19:20:12.386Z,50.47
2023-03-11T19:22:41.521Z,54.30
2023-03-11T19:25:10.162Z,52.17
2023-03-11T19:27:38.934Z,51.57
2023-03-11T19:30:08.161Z,46.33
2023-03-11T19:32:35.987Z,49.03
2023-03-11T19:35:03.820Z,51.70
2023-03-11T19:37:31.598Z,51.87
2023-03-11T19:40:00.590Z,50.33
2023-03-11T19:42:28.320Z,53.10
2023-03-11T19:44:55.907Z,50.60
2023-03-11T19:47:24.450Z,51.90
2023-03-11T19:49:52.161Z,47.30
2023-03-11T19:52:19.924Z,46.70
2023-03-11T19:54:47.578Z,57.03
2023-03-11T19:57:16.767Z,46.73
2023-03-11T19:59:44.589Z,47.83
2023-03-11T20:02:12.955Z,49.07
2023-03-11T20:04:43.138Z,48.77
2023-03-11T20:07:11.016Z,48.13
2023-03-11T20:09:38.683Z,45.60
2023-03-11T20:12:06.743Z,45.70
2023-03-11T20:14:35.915Z,50.00
2023-03-11T20:17:03.551Z,41.97
2023-03-11T20:19:31.325Z,44.80
2023-03-11T20:21:58.937Z,43.33
2023-03-11T20:24:26.706Z,44.20
2023-03-11T20:26:54.595Z,49.53
2023-03-11T20:29:22.252Z,42.57
2023-03-11T20:31:52.260Z,48.37
2023-03-11T20:34:19.934Z,39.23
2023-03-11T20:36:48.496Z,43.57
2023-03-11T20:39:16.131Z,43.70
2023-03-11T20:41:43.808Z,42.00
2023-03-11T20:44:13.916Z,43.30
2023-03-11T20:46:42.236Z,37.43
2023-03-11T20:49:11.682Z,38.00
2023-03-11T20:51:41.648Z,35.77
2023-03-11T20:54:09.617Z,34.93
2023-03-11T20:56:37.316Z,39.70
2023-03-11T20:59:07.458Z,38.03
2023-03-11T21:01:36.326Z,41.13
2023-03-11T21:04:05.028Z,42.23
2023-03-11T21:06:36.062Z,41.50
2023-03-11T21:09:06.319Z,42.63
2023-03-11T21:11:35.001Z,44.80
2023-03-11T21:14:03.173Z,42.27
2023-03-11T21:16:31.094Z,41.10
2023-03-11T21:18:58.994Z,39.83
2023-03-11T21:21:27.248Z,39.07
2023-03-11T21:23:56.329Z,40.80
2023-03-11T21:26:24.175Z,36.97
2023-03-11T21:28:51.901Z,39.17
2023-03-11T21:31:22.317Z,39.10
2023-03-11T21:33:53.841Z,35.43
2023-03-11T21:36:21.727Z,35.00
2023-03-11T21:38:50.045Z,33.33
2023-03-11T21:41:21.680Z,33.27
2023-03-11T21:43:49.525Z,34.70
2023-03-11T21:46:19.601Z,36.53
2023-03-11T21:48:48.372Z,32.07
2023-03-11T21:51:17.940Z,33.13
2023-03-11T21:53:45.741Z,31.07
2023-03-11T21:56:14.265Z,30.87
2023-03-11T21:58:43.873Z,31.53
2023-03-11T22:01:12.047Z,36.43
2023-03-11T22:03:40.958Z,33.30
2023-03-11T22:06:10.960Z,34.57
2023-03-11T22:08:38.784Z,32.50
2023-03-11T22:11:09.593Z,36.20
2023-03-11T22:13:37.434Z,32.43
2023-03-11T22:16:07.986Z,34.23
2023-03-11T22:18:35.971Z,30.83
2023-03-11T22:21:03.826Z,31.07
2023-03-11T22:23:31.693Z,33.97
2023-03-11T22:25:59.288Z,33.30
2023-03-11T22:28:27.005Z,30.97
2023-03-11T22:30:55.022Z,27.27
2023-03-11T22:33:23.989Z,33.43
2023-03-11T22:35:53.592Z,31.53
2023-03-11T22:38:21.806Z,31.80
2023-03-11T22:40:49.962Z,31.93
2023-03-11T22:43:17.792Z,31.63
2023-03-11T22:45:46.239Z,32.60
2023-03-11T22:48:14.074Z,35.20
2023-03-11T22:50:44.308Z,35.27
2023-03-11T22:53:12.587Z,32.60
2023-03-11T22:55:40.967Z,31.47
2023-03-11T22:58:09.245Z,31.23
2023-03-11T23:00:38.357Z,30.40
2023-03-11T23:03:06.127Z,32.27
2023-03-11T23:05:40.607Z,30.33
2023-03-11T23:08:10.463Z,33.10
2023-03-11T23:10:39.980Z,26.87
2023-03-11T23:13:08.297Z,30.77
2023-03-11T23:15:36.115Z,27.33
2023-03-11T23:18:03.832Z,29.23
2023-03-11T23:20:31.486Z,28.40
2023-03-11T23:22:59.123Z,26.37
2023-03-11T23:25:28.240Z,24.87
2023-03-11T23:27:55.903Z,27.80
2023-03-11T23:30:23.838Z,28.37
2023-03-11T23:32:51.496Z,29.07
2023-03-11T23:35:19.398Z,24.67
2023-03-11T23:37:48.568Z,29.07
2023-03-11T23:40:16.697Z,25.87
2023-03-11T23:42:45.669Z,26.73
2023-03-11T23:45:13.312Z,30.27
2023-03-11T23:47:41.007Z,29.43
2023-03-11T23:50:09.887Z,26.60
2023-03-11T23:52:37.584Z,27.13
2023-03-11T23:55:05.996Z,26.90
2023-03-11T23:57:35.274Z,28.67
